ドーハ の空港の天気 - METARとTAF

ドーハ国際空港 ( OTBD / DOH ) - カタール ドーハ
飛行場実況気象(Metar)
観測時間08/04 22:30 AST (08/04 19:30 UTC)
風向・風速西 2m/s
視程10km以上
天気現象
なし
気温40℃
湿度17%
気圧993hPa
METAROTBD 041930Z AUTO 27003KT 220V330 CAVOK 40/10 Q0993 NOSIG
過去の天気等 Google飛行場航空写真 Wunderground天気予報

過去48時間のMETAR

飛行場予報(TAF)
発表時間: 8/04 20:01 AST (8/04 17:01 UTC)
予報対象時間: 4日21時 AST ~ 6日3時 AST
風向・風速北北西 4m/s
視程9000m
なし
4日22時 AST ~ 5日4時 AST に一時的に
風向・風速西 3m/s
5日12時 AST ~ 5日17時 AST に 確率 40% で一時的に
風向・風速北 9m/s
TAF OTBD 041701Z 0418/0524 33007KT 9000 NSC
TEMPO 0419/0501 26006KT
PROB40 TEMPO 0509/0514 01018KT